sensor_id;sensor_type;location;lat;lon;timestamp;P1;durP1;ratioP1;P2;durP2;ratioP2
6251;SDS011;3159;52.414;9.784;2023-04-15T00:00:36;4.70;;;4.00;;
6251;SDS011;3159;52.414;9.784;2023-04-15T00:03:03;6.10;;;4.07;;
6251;SDS011;3159;52.414;9.784;2023-04-15T00:05:31;4.93;;;3.93;;
6251;SDS011;3159;52.414;9.784;2023-04-15T00:07:59;4.17;;;3.50;;
6251;SDS011;3159;52.414;9.784;2023-04-15T00:10:26;4.90;;;4.07;;
6251;SDS011;3159;52.414;9.784;2023-04-15T00:12:53;5.17;;;4.27;;
6251;SDS011;3159;52.414;9.784;2023-04-15T00:15:20;5.90;;;4.37;;
6251;SDS011;3159;52.414;9.784;2023-04-15T00:17:48;4.37;;;3.80;;
6251;SDS011;3159;52.414;9.784;2023-04-15T00:20:16;5.37;;;3.80;;
6251;SDS011;3159;52.414;9.784;2023-04-15T00:22:42;5.27;;;4.27;;
6251;SDS011;3159;52.414;9.784;2023-04-15T00:25:11;4.83;;;4.20;;
6251;SDS011;3159;52.414;9.784;2023-04-15T00:27:39;5.83;;;4.00;;
6251;SDS011;3159;52.414;9.784;2023-04-15T00:30:06;4.63;;;4.20;;
6251;SDS011;3159;52.414;9.784;2023-04-15T00:32:33;4.73;;;3.73;;
6251;SDS011;3159;52.414;9.784;2023-04-15T00:35:00;4.37;;;3.83;;
6251;SDS011;3159;52.414;9.784;2023-04-15T00:37:28;5.93;;;4.17;;
6251;SDS011;3159;52.414;9.784;2023-04-15T00:39:54;4.77;;;4.17;;
6251;SDS011;3159;52.414;9.784;2023-04-15T00:42:23;4.73;;;4.30;;
6251;SDS011;3159;52.414;9.784;2023-04-15T00:44:50;4.67;;;4.17;;
6251;SDS011;3159;52.414;9.784;2023-04-15T00:47:17;5.00;;;4.27;;
6251;SDS011;3159;52.414;9.784;2023-04-15T00:49:44;6.93;;;4.43;;
6251;SDS011;3159;52.414;9.784;2023-04-15T00:52:11;5.50;;;4.70;;
6251;SDS011;3159;52.414;9.784;2023-04-15T00:54:38;6.37;;;4.90;;
6251;SDS011;3159;52.414;9.784;2023-04-15T00:57:05;8.63;;;5.23;;
6251;SDS011;3159;52.414;9.784;2023-04-15T00:59:34;6.37;;;5.37;;
6251;SDS011;3159;52.414;9.784;2023-04-15T01:02:01;6.67;;;5.23;;
6251;SDS011;3159;52.414;9.784;2023-04-15T01:04:27;7.20;;;5.63;;
6251;SDS011;3159;52.414;9.784;2023-04-15T01:06:55;8.07;;;5.77;;
6251;SDS011;3159;52.414;9.784;2023-04-15T01:09:22;7.47;;;5.73;;
6251;SDS011;3159;52.414;9.784;2023-04-15T01:11:49;6.07;;;5.37;;
6251;SDS011;3159;52.414;9.784;2023-04-15T01:14:16;7.77;;;5.70;;
6251;SDS011;3159;52.414;9.784;2023-04-15T01:16:44;9.33;;;5.87;;
6251;SDS011;3159;52.414;9.784;2023-04-15T01:19:11;6.87;;;6.10;;
6251;SDS011;3159;52.414;9.784;2023-04-15T01:21:42;8.07;;;5.67;;
6251;SDS011;3159;52.414;9.784;2023-04-15T01:24:09;7.80;;;6.00;;
6251;SDS011;3159;52.414;9.784;2023-04-15T01:26:38;9.07;;;6.20;;
6251;SDS011;3159;52.414;9.784;2023-04-15T01:29:05;8.30;;;6.40;;
6251;SDS011;3159;52.414;9.784;2023-04-15T01:31:32;8.60;;;6.33;;
6251;SDS011;3159;52.414;9.784;2023-04-15T01:33:59;8.43;;;6.60;;
6251;SDS011;3159;52.414;9.784;2023-04-15T01:36:26;8.13;;;6.47;;
6251;SDS011;3159;52.414;9.784;2023-04-15T01:38:54;7.57;;;6.37;;
6251;SDS011;3159;52.414;9.784;2023-04-15T01:41:21;7.97;;;6.70;;
6251;SDS011;3159;52.414;9.784;2023-04-15T01:43:52;8.93;;;7.13;;
6251;SDS011;3159;52.414;9.784;2023-04-15T01:46:18;8.43;;;6.83;;
6251;SDS011;3159;52.414;9.784;2023-04-15T01:48:45;8.80;;;7.57;;
6251;SDS011;3159;52.414;9.784;2023-04-15T01:51:12;8.67;;;7.00;;
6251;SDS011;3159;52.414;9.784;2023-04-15T01:53:39;9.27;;;6.97;;
6251;SDS011;3159;52.414;9.784;2023-04-15T01:56:06;10.03;;;7.20;;
6251;SDS011;3159;52.414;9.784;2023-04-15T01:58:33;7.67;;;6.57;;
6251;SDS011;3159;52.414;9.784;2023-04-15T02:01:01;10.27;;;7.20;;
6251;SDS011;3159;52.414;9.784;2023-04-15T02:03:28;9.40;;;7.20;;
6251;SDS011;3159;52.414;9.784;2023-04-15T02:05:55;8.37;;;7.13;;
6251;SDS011;3159;52.414;9.784;2023-04-15T02:08:22;9.03;;;7.63;;
6251;SDS011;3159;52.414;9.784;2023-04-15T02:10:49;8.40;;;7.13;;
6251;SDS011;3159;52.414;9.784;2023-04-15T02:13:16;9.27;;;7.47;;
6251;SDS011;3159;52.414;9.784;2023-04-15T02:15:45;10.37;;;8.07;;
6251;SDS011;3159;52.414;9.784;2023-04-15T02:18:15;9.73;;;8.17;;
6251;SDS011;3159;52.414;9.784;2023-04-15T02:20:42;8.70;;;7.77;;
6251;SDS011;3159;52.414;9.784;2023-04-15T02:23:09;9.80;;;8.03;;
6251;SDS011;3159;52.414;9.784;2023-04-15T02:25:36;9.43;;;7.70;;
6251;SDS011;3159;52.414;9.784;2023-04-15T02:28:04;10.30;;;8.50;;
6251;SDS011;3159;52.414;9.784;2023-04-15T02:30:31;10.67;;;8.10;;
6251;SDS011;3159;52.414;9.784;2023-04-15T02:32:58;10.17;;;7.57;;
6251;SDS011;3159;52.414;9.784;2023-04-15T02:35:27;11.83;;;8.43;;
6251;SDS011;3159;52.414;9.784;2023-04-15T02:37:54;9.83;;;7.93;;
6251;SDS011;3159;52.414;9.784;2023-04-15T02:40:21;11.47;;;8.47;;
6251;SDS011;3159;52.414;9.784;2023-04-15T02:42:47;11.83;;;8.57;;
6251;SDS011;3159;52.414;9.784;2023-04-15T02:45:15;9.97;;;7.90;;
6251;SDS011;3159;52.414;9.784;2023-04-15T02:47:43;11.60;;;7.87;;
6251;SDS011;3159;52.414;9.784;2023-04-15T02:50:11;11.20;;;8.40;;
6251;SDS011;3159;52.414;9.784;2023-04-15T02:52:41;11.87;;;9.07;;
6251;SDS011;3159;52.414;9.784;2023-04-15T02:55:08;10.37;;;8.07;;
6251;SDS011;3159;52.414;9.784;2023-04-15T02:57:36;9.80;;;8.20;;
6251;SDS011;3159;52.414;9.784;2023-04-15T03:00:03;11.27;;;8.87;;
6251;SDS011;3159;52.414;9.784;2023-04-15T03:02:33;11.57;;;9.43;;
6251;SDS011;3159;52.414;9.784;2023-04-15T03:05:00;11.63;;;9.07;;
6251;SDS011;3159;52.414;9.784;2023-04-15T03:07:27;13.47;;;10.10;;
6251;SDS011;3159;52.414;9.784;2023-04-15T03:09:55;13.80;;;10.10;;
6251;SDS011;3159;52.414;9.784;2023-04-15T03:12:22;15.27;;;10.63;;
6251;SDS011;3159;52.414;9.784;2023-04-15T03:14:49;15.43;;;10.77;;
6251;SDS011;3159;52.414;9.784;2023-04-15T03:17:15;12.90;;;10.13;;
6251;SDS011;3159;52.414;9.784;2023-04-15T03:19:42;13.97;;;10.77;;
6251;SDS011;3159;52.414;9.784;2023-04-15T03:22:09;14.03;;;10.70;;
6251;SDS011;3159;52.414;9.784;2023-04-15T03:24:36;15.30;;;11.33;;
6251;SDS011;3159;52.414;9.784;2023-04-15T03:27:04;13.03;;;10.43;;
6251;SDS011;3159;52.414;9.784;2023-04-15T03:29:32;16.13;;;11.10;;
6251;SDS011;3159;52.414;9.784;2023-04-15T03:31:59;15.03;;;11.40;;
6251;SDS011;3159;52.414;9.784;2023-04-15T03:34:25;18.97;;;11.47;;
6251;SDS011;3159;52.414;9.784;2023-04-15T03:36:52;16.57;;;11.93;;
6251;SDS011;3159;52.414;9.784;2023-04-15T03:39:19;14.30;;;11.23;;
6251;SDS011;3159;52.414;9.784;2023-04-15T03:41:46;15.10;;;11.43;;
6251;SDS011;3159;52.414;9.784;2023-04-15T03:44:14;15.27;;;12.33;;
6251;SDS011;3159;52.414;9.784;2023-04-15T03:46:41;16.97;;;12.70;;
6251;SDS011;3159;52.414;9.784;2023-04-15T03:49:08;18.13;;;13.20;;
6251;SDS011;3159;52.414;9.784;2023-04-15T03:51:35;16.37;;;13.00;;
6251;SDS011;3159;52.414;9.784;2023-04-15T03:54:02;15.90;;;12.43;;
6251;SDS011;3159;52.414;9.784;2023-04-15T03:56:28;19.57;;;12.33;;
6251;SDS011;3159;52.414;9.784;2023-04-15T03:58:55;17.23;;;13.00;;
6251;SDS011;3159;52.414;9.784;2023-04-15T04:01:23;17.37;;;13.57;;
6251;SDS011;3159;52.414;9.784;2023-04-15T04:03:50;17.93;;;14.03;;
6251;SDS011;3159;52.414;9.784;2023-04-15T04:06:17;17.33;;;13.73;;
6251;SDS011;3159;52.414;9.784;2023-04-15T04:08:44;16.90;;;13.07;;
6251;SDS011;3159;52.414;9.784;2023-04-15T04:11:10;20.13;;;13.40;;
6251;SDS011;3159;52.414;9.784;2023-04-15T04:13:37;19.73;;;13.60;;
6251;SDS011;3159;52.414;9.784;2023-04-15T04:16:04;18.77;;;12.63;;
6251;SDS011;3159;52.414;9.784;2023-04-15T04:18:33;18.00;;;13.17;;
6251;SDS011;3159;52.414;9.784;2023-04-15T04:21:00;18.57;;;13.60;;
6251;SDS011;3159;52.414;9.784;2023-04-15T04:23:27;20.03;;;13.67;;
6251;SDS011;3159;52.414;9.784;2023-04-15T04:25:54;17.77;;;13.43;;
6251;SDS011;3159;52.414;9.784;2023-04-15T04:28:20;18.53;;;13.83;;
6251;SDS011;3159;52.414;9.784;2023-04-15T04:30:47;18.87;;;14.03;;
6251;SDS011;3159;52.414;9.784;2023-04-15T04:33:14;19.23;;;13.20;;
6251;SDS011;3159;52.414;9.784;2023-04-15T04:35:42;21.37;;;14.30;;
6251;SDS011;3159;52.414;9.784;2023-04-15T04:38:09;21.23;;;14.13;;
6251;SDS011;3159;52.414;9.784;2023-04-15T04:40:36;18.33;;;13.37;;
6251;SDS011;3159;52.414;9.784;2023-04-15T04:43:03;20.10;;;14.47;;
6251;SDS011;3159;52.414;9.784;2023-04-15T04:45:30;17.57;;;13.13;;
6251;SDS011;3159;52.414;9.784;2023-04-15T04:47:57;19.53;;;13.80;;
6251;SDS011;3159;52.414;9.784;2023-04-15T04:50:24;19.07;;;13.53;;
6251;SDS011;3159;52.414;9.784;2023-04-15T04:52:52;19.07;;;14.13;;
6251;SDS011;3159;52.414;9.784;2023-04-15T04:55:19;18.97;;;14.67;;
6251;SDS011;3159;52.414;9.784;2023-04-15T04:57:46;19.63;;;14.40;;
6251;SDS011;3159;52.414;9.784;2023-04-15T05:00:13;21.00;;;15.20;;
6251;SDS011;3159;52.414;9.784;2023-04-15T05:02:40;17.87;;;13.50;;
6251;SDS011;3159;52.414;9.784;2023-04-15T05:05:08;19.13;;;14.37;;
6251;SDS011;3159;52.414;9.784;2023-04-15T05:07:35;17.43;;;13.50;;
6251;SDS011;3159;52.414;9.784;2023-04-15T05:10:04;21.10;;;14.10;;
6251;SDS011;3159;52.414;9.784;2023-04-15T05:12:32;17.80;;;13.13;;
6251;SDS011;3159;52.414;9.784;2023-04-15T05:14:59;17.77;;;13.47;;
6251;SDS011;3159;52.414;9.784;2023-04-15T05:17:26;17.33;;;13.37;;
6251;SDS011;3159;52.414;9.784;2023-04-15T05:19:55;18.67;;;13.17;;
6251;SDS011;3159;52.414;9.784;2023-04-15T05:22:21;17.20;;;13.20;;
6251;SDS011;3159;52.414;9.784;2023-04-15T05:24:48;18.37;;;13.77;;
6251;SDS011;3159;52.414;9.784;2023-04-15T05:27:16;18.20;;;13.53;;
6251;SDS011;3159;52.414;9.784;2023-04-15T05:29:44;18.63;;;13.37;;
6251;SDS011;3159;52.414;9.784;2023-04-15T05:32:10;19.20;;;14.27;;
6251;SDS011;3159;52.414;9.784;2023-04-15T05:34:37;18.70;;;13.90;;
6251;SDS011;3159;52.414;9.784;2023-04-15T05:37:04;17.97;;;13.67;;
6251;SDS011;3159;52.414;9.784;2023-04-15T05:39:31;17.47;;;13.07;;
6251;SDS011;3159;52.414;9.784;2023-04-15T05:41:58;17.10;;;12.33;;
6251;SDS011;3159;52.414;9.784;2023-04-15T05:44:26;16.37;;;12.43;;
6251;SDS011;3159;52.414;9.784;2023-04-15T05:46:53;15.87;;;12.47;;
6251;SDS011;3159;52.414;9.784;2023-04-15T05:49:19;15.07;;;12.47;;
6251;SDS011;3159;52.414;9.784;2023-04-15T05:51:46;14.43;;;11.43;;
6251;SDS011;3159;52.414;9.784;2023-04-15T05:54:13;16.07;;;11.27;;
6251;SDS011;3159;52.414;9.784;2023-04-15T05:56:40;15.10;;;11.23;;
6251;SDS011;3159;52.414;9.784;2023-04-15T05:59:07;14.93;;;11.70;;
6251;SDS011;3159;52.414;9.784;2023-04-15T06:01:35;16.57;;;11.80;;
6251;SDS011;3159;52.414;9.784;2023-04-15T06:04:02;15.17;;;10.60;;
6251;SDS011;3159;52.414;9.784;2023-04-15T06:06:29;13.90;;;11.13;;
6251;SDS011;3159;52.414;9.784;2023-04-15T06:08:56;13.50;;;10.33;;
6251;SDS011;3159;52.414;9.784;2023-04-15T06:11:23;13.27;;;9.70;;
6251;SDS011;3159;52.414;9.784;2023-04-15T06:13:51;11.77;;;9.23;;
6251;SDS011;3159;52.414;9.784;2023-04-15T06:16:18;12.27;;;8.97;;
6251;SDS011;3159;52.414;9.784;2023-04-15T06:18:46;12.43;;;9.70;;
6251;SDS011;3159;52.414;9.784;2023-04-15T06:21:12;10.87;;;8.60;;
6251;SDS011;3159;52.414;9.784;2023-04-15T06:23:39;12.90;;;9.03;;
6251;SDS011;3159;52.414;9.784;2023-04-15T06:26:07;10.17;;;8.20;;
6251;SDS011;3159;52.414;9.784;2023-04-15T06:28:33;11.30;;;7.73;;
6251;SDS011;3159;52.414;9.784;2023-04-15T06:31:00;11.50;;;8.23;;
6251;SDS011;3159;52.414;9.784;2023-04-15T06:33:27;9.97;;;7.53;;
6251;SDS011;3159;52.414;9.784;2023-04-15T06:35:56;10.63;;;7.90;;
6251;SDS011;3159;52.414;9.784;2023-04-15T06:38:22;10.40;;;7.77;;
6251;SDS011;3159;52.414;9.784;2023-04-15T06:40:49;8.90;;;7.97;;
6251;SDS011;3159;52.414;9.784;2023-04-15T06:43:16;9.10;;;7.00;;
6251;SDS011;3159;52.414;9.784;2023-04-15T06:45:43;9.17;;;7.70;;
6251;SDS011;3159;52.414;9.784;2023-04-15T06:48:10;7.67;;;6.50;;
6251;SDS011;3159;52.414;9.784;2023-04-15T06:50:37;8.37;;;6.87;;
6251;SDS011;3159;52.414;9.784;2023-04-15T06:53:06;7.27;;;6.50;;
6251;SDS011;3159;52.414;9.784;2023-04-15T06:55:32;8.07;;;6.73;;
6251;SDS011;3159;52.414;9.784;2023-04-15T06:57:59;7.50;;;6.70;;
6251;SDS011;3159;52.414;9.784;2023-04-15T07:00:26;7.30;;;5.53;;
6251;SDS011;3159;52.414;9.784;2023-04-15T07:02:53;8.13;;;6.50;;
6251;SDS011;3159;52.414;9.784;2023-04-15T07:05:20;6.97;;;5.77;;
6251;SDS011;3159;52.414;9.784;2023-04-15T07:07:48;7.23;;;6.13;;
6251;SDS011;3159;52.414;9.784;2023-04-15T07:10:17;8.97;;;6.70;;
6251;SDS011;3159;52.414;9.784;2023-04-15T07:12:44;5.97;;;5.37;;
6251;SDS011;3159;52.414;9.784;2023-04-15T07:15:12;5.63;;;4.97;;
6251;SDS011;3159;52.414;9.784;2023-04-15T07:17:40;6.70;;;5.20;;
6251;SDS011;3159;52.414;9.784;2023-04-15T07:20:07;7.20;;;5.80;;
6251;SDS011;3159;52.414;9.784;2023-04-15T07:22:34;6.63;;;5.13;;
6251;SDS011;3159;52.414;9.784;2023-04-15T07:25:01;5.93;;;5.33;;
6251;SDS011;3159;52.414;9.784;2023-04-15T07:27:29;6.83;;;5.33;;
6251;SDS011;3159;52.414;9.784;2023-04-15T07:29:56;5.83;;;4.87;;
6251;SDS011;3159;52.414;9.784;2023-04-15T07:32:23;7.17;;;5.00;;
6251;SDS011;3159;52.414;9.784;2023-04-15T07:34:50;15.10;;;10.40;;
6251;SDS011;3159;52.414;9.784;2023-04-15T07:37:17;9.23;;;7.30;;
6251;SDS011;3159;52.414;9.784;2023-04-15T07:39:44;11.10;;;8.70;;
6251;SDS011;3159;52.414;9.784;2023-04-15T07:42:11;11.27;;;8.00;;
6251;SDS011;3159;52.414;9.784;2023-04-15T07:44:39;7.57;;;5.83;;
6251;SDS011;3159;52.414;9.784;2023-04-15T07:47:06;5.80;;;5.20;;
6251;SDS011;3159;52.414;9.784;2023-04-15T07:49:33;5.57;;;4.80;;
6251;SDS011;3159;52.414;9.784;2023-04-15T07:51:59;5.60;;;5.00;;
6251;SDS011;3159;52.414;9.784;2023-04-15T07:54:26;12.90;;;9.77;;
6251;SDS011;3159;52.414;9.784;2023-04-15T07:56:53;12.70;;;8.73;;
6251;SDS011;3159;52.414;9.784;2023-04-15T07:59:20;14.83;;;10.80;;
6251;SDS011;3159;52.414;9.784;2023-04-15T08:01:48;12.20;;;10.17;;
6251;SDS011;3159;52.414;9.784;2023-04-15T08:04:15;7.27;;;6.30;;
6251;SDS011;3159;52.414;9.784;2023-04-15T08:06:42;4.23;;;3.83;;
6251;SDS011;3159;52.414;9.784;2023-04-15T08:09:09;8.23;;;6.30;;
6251;SDS011;3159;52.414;9.784;2023-04-15T08:11:35;4.63;;;4.17;;
6251;SDS011;3159;52.414;9.784;2023-04-15T08:14:02;8.67;;;6.53;;
6251;SDS011;3159;52.414;9.784;2023-04-15T08:16:29;7.67;;;6.27;;
6251;SDS011;3159;52.414;9.784;2023-04-15T08:18:58;6.03;;;5.07;;
6251;SDS011;3159;52.414;9.784;2023-04-15T08:21:25;8.93;;;7.33;;
6251;SDS011;3159;52.414;9.784;2023-04-15T08:23:54;10.07;;;8.13;;
6251;SDS011;3159;52.414;9.784;2023-04-15T08:26:21;13.40;;;10.20;;
6251;SDS011;3159;52.414;9.784;2023-04-15T08:28:48;7.17;;;5.43;;
6251;SDS011;3159;52.414;9.784;2023-04-15T08:31:16;4.57;;;4.17;;
6251;SDS011;3159;52.414;9.784;2023-04-15T08:33:43;4.63;;;4.10;;
6251;SDS011;3159;52.414;9.784;2023-04-15T08:36:12;4.83;;;3.73;;
6251;SDS011;3159;52.414;9.784;2023-04-15T08:38:39;14.47;;;10.83;;
6251;SDS011;3159;52.414;9.784;2023-04-15T08:41:08;8.07;;;5.60;;
6251;SDS011;3159;52.414;9.784;2023-04-15T08:43:44;8.13;;;6.20;;
6251;SDS011;3159;52.414;9.784;2023-04-15T08:46:16;7.57;;;5.97;;
6251;SDS011;3159;52.414;9.784;2023-04-15T08:48:44;8.00;;;5.60;;
6251;SDS011;3159;52.414;9.784;2023-04-15T08:51:14;4.50;;;3.10;;
6251;SDS011;3159;52.414;9.784;2023-04-15T08:53:42;5.03;;;3.50;;
6251;SDS011;3159;52.414;9.784;2023-04-15T08:56:10;3.90;;;3.00;;
6251;SDS011;3159;52.414;9.784;2023-04-15T08:58:39;7.17;;;6.30;;
6251;SDS011;3159;52.414;9.784;2023-04-15T09:01:06;7.20;;;5.93;;
6251;SDS011;3159;52.414;9.784;2023-04-15T09:03:33;4.57;;;4.03;;
6251;SDS011;3159;52.414;9.784;2023-04-15T09:06:02;11.77;;;9.27;;
6251;SDS011;3159;52.414;9.784;2023-04-15T09:08:31;12.40;;;9.20;;
6251;SDS011;3159;52.414;9.784;2023-04-15T09:10:59;5.97;;;4.53;;
6251;SDS011;3159;52.414;9.784;2023-04-15T09:13:27;4.73;;;4.10;;
6251;SDS011;3159;52.414;9.784;2023-04-15T09:15:54;4.17;;;3.67;;
6251;SDS011;3159;52.414;9.784;2023-04-15T09:18:27;4.00;;;3.50;;
6251;SDS011;3159;52.414;9.784;2023-04-15T09:20:56;5.37;;;4.47;;
6251;SDS011;3159;52.414;9.784;2023-04-15T09:23:32;6.60;;;4.60;;
6251;SDS011;3159;52.414;9.784;2023-04-15T09:25:58;4.30;;;3.90;;
6251;SDS011;3159;52.414;9.784;2023-04-15T09:28:26;4.53;;;4.07;;
6251;SDS011;3159;52.414;9.784;2023-04-15T09:30:56;6.43;;;4.97;;
6251;SDS011;3159;52.414;9.784;2023-04-15T09:33:24;13.03;;;8.97;;
6251;SDS011;3159;52.414;9.784;2023-04-15T09:35:56;11.40;;;9.23;;
6251;SDS011;3159;52.414;9.784;2023-04-15T09:38:24;7.50;;;5.47;;
6251;SDS011;3159;52.414;9.784;2023-04-15T09:40:52;5.63;;;4.60;;
6251;SDS011;3159;52.414;9.784;2023-04-15T09:43:19;8.13;;;4.77;;
6251;SDS011;3159;52.414;9.784;2023-04-15T09:45:46;8.87;;;5.73;;
6251;SDS011;3159;52.414;9.784;2023-04-15T09:48:15;11.00;;;7.53;;
6251;SDS011;3159;52.414;9.784;2023-04-15T09:50:45;6.43;;;5.50;;
6251;SDS011;3159;52.414;9.784;2023-04-15T09:53:15;6.80;;;5.73;;
6251;SDS011;3159;52.414;9.784;2023-04-15T09:55:44;7.77;;;6.00;;
6251;SDS011;3159;52.414;9.784;2023-04-15T09:58:18;7.43;;;5.63;;
6251;SDS011;3159;52.414;9.784;2023-04-15T10:00:46;9.13;;;6.73;;
6251;SDS011;3159;52.414;9.784;2023-04-15T10:03:14;16.27;;;12.23;;
6251;SDS011;3159;52.414;9.784;2023-04-15T10:05:45;11.07;;;7.73;;
6251;SDS011;3159;52.414;9.784;2023-04-15T10:08:14;14.67;;;9.43;;
6251;SDS011;3159;52.414;9.784;2023-04-15T10:10:43;15.83;;;11.43;;
6251;SDS011;3159;52.414;9.784;2023-04-15T10:13:10;18.83;;;13.27;;
6251;SDS011;3159;52.414;9.784;2023-04-15T10:15:40;13.70;;;9.70;;
6251;SDS011;3159;52.414;9.784;2023-04-15T10:18:09;14.73;;;10.70;;
6251;SDS011;3159;52.414;9.784;2023-04-15T10:20:38;12.40;;;9.07;;
6251;SDS011;3159;52.414;9.784;2023-04-15T10:23:06;13.07;;;9.17;;
6251;SDS011;3159;52.414;9.784;2023-04-15T10:25:34;16.70;;;10.17;;
6251;SDS011;3159;52.414;9.784;2023-04-15T10:28:02;16.13;;;10.90;;
6251;SDS011;3159;52.414;9.784;2023-04-15T10:30:30;16.10;;;11.33;;
6251;SDS011;3159;52.414;9.784;2023-04-15T10:32:59;17.70;;;11.50;;
6251;SDS011;3159;52.414;9.784;2023-04-15T10:35:27;20.90;;;12.27;;
6251;SDS011;3159;52.414;9.784;2023-04-15T10:37:54;22.13;;;13.63;;
6251;SDS011;3159;52.414;9.784;2023-04-15T10:40:25;32.63;;;22.93;;
6251;SDS011;3159;52.414;9.784;2023-04-15T10:42:53;23.50;;;17.17;;
6251;SDS011;3159;52.414;9.784;2023-04-15T10:45:20;23.00;;;15.13;;
6251;SDS011;3159;52.414;9.784;2023-04-15T10:47:50;24.50;;;14.73;;
6251;SDS011;3159;52.414;9.784;2023-04-15T10:50:21;25.53;;;15.50;;
6251;SDS011;3159;52.414;9.784;2023-04-15T10:52:49;25.53;;;16.13;;
6251;SDS011;3159;52.414;9.784;2023-04-15T10:55:18;26.77;;;16.60;;
6251;SDS011;3159;52.414;9.784;2023-04-15T10:57:48;26.80;;;17.87;;
6251;SDS011;3159;52.414;9.784;2023-04-15T11:00:18;33.40;;;21.90;;
6251;SDS011;3159;52.414;9.784;2023-04-15T11:02:51;29.43;;;19.07;;
6251;SDS011;3159;52.414;9.784;2023-04-15T11:05:21;28.73;;;17.87;;
6251;SDS011;3159;52.414;9.784;2023-04-15T11:07:50;30.03;;;18.57;;
6251;SDS011;3159;52.414;9.784;2023-04-15T11:15:58;34.03;;;19.67;;
6251;SDS011;3159;52.414;9.784;2023-04-15T11:18:27;32.37;;;19.67;;
6251;SDS011;3159;52.414;9.784;2023-04-15T11:20:57;34.57;;;19.83;;
6251;SDS011;3159;52.414;9.784;2023-04-15T11:23:30;35.03;;;20.40;;
6251;SDS011;3159;52.414;9.784;2023-04-15T11:25:58;32.83;;;20.83;;
6251;SDS011;3159;52.414;9.784;2023-04-15T11:28:27;38.13;;;23.77;;
6251;SDS011;3159;52.414;9.784;2023-04-15T11:30:55;32.87;;;20.77;;
6251;SDS011;3159;52.414;9.784;2023-04-15T11:33:22;35.47;;;21.80;;
6251;SDS011;3159;52.414;9.784;2023-04-15T11:35:52;41.23;;;23.73;;
6251;SDS011;3159;52.414;9.784;2023-04-15T11:38:21;41.23;;;26.17;;
6251;SDS011;3159;52.414;9.784;2023-04-15T11:40:49;38.67;;;24.83;;
6251;SDS011;3159;52.414;9.784;2023-04-15T11:43:17;34.93;;;21.70;;
6251;SDS011;3159;52.414;9.784;2023-04-15T11:45:47;38.07;;;23.43;;
6251;SDS011;3159;52.414;9.784;2023-04-15T11:48:16;37.87;;;23.43;;
6251;SDS011;3159;52.414;9.784;2023-04-15T11:50:43;39.00;;;24.97;;
6251;SDS011;3159;52.414;9.784;2023-04-15T11:53:11;38.40;;;24.13;;
6251;SDS011;3159;52.414;9.784;2023-04-15T11:55:44;37.77;;;23.77;;
6251;SDS011;3159;52.414;9.784;2023-04-15T11:58:12;53.00;;;32.70;;
6251;SDS011;3159;52.414;9.784;2023-04-15T12:00:40;46.67;;;28.67;;
6251;SDS011;3159;52.414;9.784;2023-04-15T12:03:12;41.53;;;25.93;;
6251;SDS011;3159;52.414;9.784;2023-04-15T12:06:01;42.47;;;26.47;;
6251;SDS011;3159;52.414;9.784;2023-04-15T12:11:16;44.73;;;27.00;;
6251;SDS011;3159;52.414;9.784;2023-04-15T12:13:43;43.83;;;27.47;;
6251;SDS011;3159;52.414;9.784;2023-04-15T12:16:11;49.03;;;29.13;;
6251;SDS011;3159;52.414;9.784;2023-04-15T12:18:37;45.50;;;28.93;;
6251;SDS011;3159;52.414;9.784;2023-04-15T12:21:08;47.10;;;28.37;;
6251;SDS011;3159;52.414;9.784;2023-04-15T12:23:36;47.90;;;29.37;;
6251;SDS011;3159;52.414;9.784;2023-04-15T12:26:03;46.03;;;29.67;;
6251;SDS011;3159;52.414;9.784;2023-04-15T12:28:32;49.50;;;30.37;;
6251;SDS011;3159;52.414;9.784;2023-04-15T12:31:05;47.93;;;30.07;;
6251;SDS011;3159;52.414;9.784;2023-04-15T12:33:33;47.80;;;28.97;;
6251;SDS011;3159;52.414;9.784;2023-04-15T12:36:00;48.50;;;31.40;;
6251;SDS011;3159;52.414;9.784;2023-04-15T12:38:28;45.67;;;28.20;;
6251;SDS011;3159;52.414;9.784;2023-04-15T12:40:55;46.93;;;28.90;;
6251;SDS011;3159;52.414;9.784;2023-04-15T12:43:22;47.73;;;28.83;;
6251;SDS011;3159;52.414;9.784;2023-04-15T12:45:51;45.87;;;29.27;;
6251;SDS011;3159;52.414;9.784;2023-04-15T12:48:18;47.87;;;28.27;;
6251;SDS011;3159;52.414;9.784;2023-04-15T12:50:44;44.03;;;27.57;;
6251;SDS011;3159;52.414;9.784;2023-04-15T12:53:11;41.27;;;26.67;;
6251;SDS011;3159;52.414;9.784;2023-04-15T12:55:38;45.70;;;27.87;;
6251;SDS011;3159;52.414;9.784;2023-04-15T12:58:05;41.80;;;25.97;;
6251;SDS011;3159;52.414;9.784;2023-04-15T13:00:33;39.63;;;26.57;;
6251;SDS011;3159;52.414;9.784;2023-04-15T13:03:01;42.33;;;28.03;;
6251;SDS011;3159;52.414;9.784;2023-04-15T13:05:28;45.00;;;26.43;;
6251;SDS011;3159;52.414;9.784;2023-04-15T13:07:55;42.07;;;27.20;;
6251;SDS011;3159;52.414;9.784;2023-04-15T13:10:22;42.30;;;26.57;;
6251;SDS011;3159;52.414;9.784;2023-04-15T13:12:49;38.40;;;27.27;;
6251;SDS011;3159;52.414;9.784;2023-04-15T13:15:17;38.33;;;26.40;;
6251;SDS011;3159;52.414;9.784;2023-04-15T13:17:45;41.80;;;26.73;;
6251;SDS011;3159;52.414;9.784;2023-04-15T13:20:14;39.30;;;25.47;;
6251;SDS011;3159;52.414;9.784;2023-04-15T13:22:41;39.57;;;26.37;;
6251;SDS011;3159;52.414;9.784;2023-04-15T13:25:08;38.60;;;24.90;;
6251;SDS011;3159;52.414;9.784;2023-04-15T13:27:35;40.40;;;23.63;;
6251;SDS011;3159;52.414;9.784;2023-04-15T13:30:02;38.83;;;25.17;;
6251;SDS011;3159;52.414;9.784;2023-04-15T13:32:33;37.30;;;25.67;;
6251;SDS011;3159;52.414;9.784;2023-04-15T13:35:00;39.47;;;25.63;;
6251;SDS011;3159;52.414;9.784;2023-04-15T13:37:28;38.53;;;24.47;;
6251;SDS011;3159;52.414;9.784;2023-04-15T13:39:55;36.50;;;24.30;;
6251;SDS011;3159;52.414;9.784;2023-04-15T13:42:23;35.73;;;23.23;;
6251;SDS011;3159;52.414;9.784;2023-04-15T13:44:50;32.83;;;22.33;;
6251;SDS011;3159;52.414;9.784;2023-04-15T13:47:17;40.37;;;25.70;;
6251;SDS011;3159;52.414;9.784;2023-04-15T13:49:45;31.93;;;22.67;;
6251;SDS011;3159;52.414;9.784;2023-04-15T13:52:12;37.47;;;24.43;;
6251;SDS011;3159;52.414;9.784;2023-04-15T13:54:40;38.83;;;23.83;;
6251;SDS011;3159;52.414;9.784;2023-04-15T13:57:07;32.00;;;23.73;;
6251;SDS011;3159;52.414;9.784;2023-04-15T13:59:34;35.53;;;24.27;;
6251;SDS011;3159;52.414;9.784;2023-04-15T14:02:01;34.83;;;25.33;;
6251;SDS011;3159;52.414;9.784;2023-04-15T14:04:28;32.13;;;20.97;;
6251;SDS011;3159;52.414;9.784;2023-04-15T14:06:55;27.47;;;20.40;;
6251;SDS011;3159;52.414;9.784;2023-04-15T14:09:22;27.57;;;19.33;;
6251;SDS011;3159;52.414;9.784;2023-04-15T14:11:50;28.27;;;19.50;;
6251;SDS011;3159;52.414;9.784;2023-04-15T14:14:17;29.13;;;20.87;;
6251;SDS011;3159;52.414;9.784;2023-04-15T14:16:44;27.17;;;19.13;;
6251;SDS011;3159;52.414;9.784;2023-04-15T14:19:11;24.53;;;18.77;;
6251;SDS011;3159;52.414;9.784;2023-04-15T14:21:38;28.40;;;19.93;;
6251;SDS011;3159;52.414;9.784;2023-04-15T14:24:05;27.80;;;18.83;;
6251;SDS011;3159;52.414;9.784;2023-04-15T14:26:32;24.43;;;18.13;;
6251;SDS011;3159;52.414;9.784;2023-04-15T14:29:00;25.87;;;18.03;;
6251;SDS011;3159;52.414;9.784;2023-04-15T14:31:27;27.73;;;19.07;;
6251;SDS011;3159;52.414;9.784;2023-04-15T14:33:54;23.73;;;18.73;;
6251;SDS011;3159;52.414;9.784;2023-04-15T14:36:20;22.10;;;17.37;;
6251;SDS011;3159;52.414;9.784;2023-04-15T14:38:47;24.80;;;18.23;;
6251;SDS011;3159;52.414;9.784;2023-04-15T14:41:14;22.77;;;18.33;;
6251;SDS011;3159;52.414;9.784;2023-04-15T14:43:41;31.00;;;23.10;;
6251;SDS011;3159;52.414;9.784;2023-04-15T14:46:09;26.73;;;20.33;;
6251;SDS011;3159;52.414;9.784;2023-04-15T14:48:38;31.03;;;22.63;;
6251;SDS011;3159;52.414;9.784;2023-04-15T14:51:05;37.13;;;25.10;;
6251;SDS011;3159;52.414;9.784;2023-04-15T14:53:32;36.20;;;24.13;;
6251;SDS011;3159;52.414;9.784;2023-04-15T14:55:59;22.53;;;17.77;;
6251;SDS011;3159;52.414;9.784;2023-04-15T14:58:25;34.70;;;23.47;;
6251;SDS011;3159;52.414;9.784;2023-04-15T15:00:52;26.13;;;19.17;;
6251;SDS011;3159;52.414;9.784;2023-04-15T15:03:20;35.87;;;27.80;;
6251;SDS011;3159;52.414;9.784;2023-04-15T15:05:48;22.83;;;17.87;;
6251;SDS011;3159;52.414;9.784;2023-04-15T15:08:15;20.63;;;15.80;;